METAR Formatted Surface Weather Observation
Issued by NWS

Home | Current Version | Previous Version | Text Only | Print | Product List | Glossary On
Versions: 1 2 3 4 5 6 7 8 9
396
SAUS44 KBMX 101356
MTRHEY
METAR KHEY 101353Z AUTO 29006KT 10SM CLR 00/M09 A3027 RMK AO2 SLP245
T00001094 FZRANO $



USA.gov is the U.S. government's official web portal to all federal, state and local government web resources and services.